sensor_id;sensor_type;location;lat;lon;timestamp;pressure;altitude;pressure_sealevel;temperature;humidity
77662;BME280;69666;52.136;5.424;2024-02-26T00:00:06;100080.22;;;5.12;96.21
77662;BME280;69666;52.136;5.424;2024-02-26T00:02:37;100077.13;;;5.08;96.04
77662;BME280;69666;52.136;5.424;2024-02-26T00:05:08;100093.97;;;5.09;96.49
77662;BME280;69666;52.136;5.424;2024-02-26T00:07:37;100087.59;;;5.10;96.35
77662;BME280;69666;52.136;5.424;2024-02-26T00:10:27;100086.81;;;5.16;95.81
77662;BME280;69666;52.136;5.424;2024-02-26T00:12:57;100098.31;;;5.16;95.49
77662;BME280;69666;52.136;5.424;2024-02-26T00:15:29;100088.63;;;5.09;95.66
77662;BME280;69666;52.136;5.424;2024-02-26T00:17:58;100086.34;;;5.06;95.60
77662;BME280;69666;52.136;5.424;2024-02-26T00:20:29;100093.72;;;5.04;95.88
77662;BME280;69666;52.136;5.424;2024-02-26T00:22:59;100103.63;;;5.10;95.91
77662;BME280;69666;52.136;5.424;2024-02-26T00:25:31;100095.97;;;5.00;95.70
77662;BME280;69666;52.136;5.424;2024-02-26T00:28:00;100098.25;;;5.03;95.76
77662;BME280;69666;52.136;5.424;2024-02-26T00:30:31;100101.34;;;5.07;95.48
77662;BME280;69666;52.136;5.424;2024-02-26T00:33:04;100100.75;;;5.11;95.06
77662;BME280;69666;52.136;5.424;2024-02-26T00:35:35;100098.22;;;4.96;95.27
77662;BME280;69666;52.136;5.424;2024-02-26T00:38:05;100101.03;;;4.88;95.70
77662;BME280;69666;52.136;5.424;2024-02-26T00:40:34;100095.84;;;4.80;95.50
77662;BME280;69666;52.136;5.424;2024-02-26T00:43:19;100090.13;;;4.83;96.07
77662;BME280;69666;52.136;5.424;2024-02-26T00:45:55;100105.50;;;4.81;95.90
77662;BME280;69666;52.136;5.424;2024-02-26T00:48:24;100099.72;;;4.78;95.88
77662;BME280;69666;52.136;5.424;2024-02-26T00:50:54;100101.56;;;4.77;95.49
77662;BME280;69666;52.136;5.424;2024-02-26T00:53:29;100109.97;;;4.74;95.87
77662;BME280;69666;52.136;5.424;2024-02-26T00:55:58;100102.19;;;4.79;95.84
77662;BME280;69666;52.136;5.424;2024-02-26T00:58:28;100101.44;;;4.85;95.58
77662;BME280;69666;52.136;5.424;2024-02-26T01:00:57;100101.81;;;4.82;95.40
77662;BME280;69666;52.136;5.424;2024-02-26T01:03:27;100103.84;;;4.80;95.52
77662;BME280;69666;52.136;5.424;2024-02-26T01:05:57;100105.25;;;4.76;95.22
77662;BME280;69666;52.136;5.424;2024-02-26T01:08:27;100111.19;;;4.72;95.52
77662;BME280;69666;52.136;5.424;2024-02-26T01:10:57;100109.78;;;4.76;95.81
77662;BME280;69666;52.136;5.424;2024-02-26T01:13:59;100099.94;;;4.76;95.83
77662;BME280;69666;52.136;5.424;2024-02-26T01:16:29;100097.88;;;4.78;95.58
77662;BME280;69666;52.136;5.424;2024-02-26T01:19:00;100098.91;;;4.77;95.44
77662;BME280;69666;52.136;5.424;2024-02-26T01:21:31;100102.59;;;4.76;95.59
77662;BME280;69666;52.136;5.424;2024-02-26T01:24:01;100098.66;;;4.72;95.59
77662;BME280;69666;52.136;5.424;2024-02-26T01:26:32;100097.25;;;4.76;95.66
77662;BME280;69666;52.136;5.424;2024-02-26T01:29:02;100098.66;;;4.72;95.56
77662;BME280;69666;52.136;5.424;2024-02-26T01:31:33;100090.66;;;4.72;95.64
77662;BME280;69666;52.136;5.424;2024-02-26T01:34:03;100094.78;;;4.75;95.75
77662;BME280;69666;52.136;5.424;2024-02-26T01:36:33;100093.13;;;4.74;95.48
77662;BME280;69666;52.136;5.424;2024-02-26T01:39:03;100091.06;;;4.69;95.43
77662;BME280;69666;52.136;5.424;2024-02-26T01:41:57;100080.00;;;4.72;95.52
77662;BME280;69666;52.136;5.424;2024-02-26T01:44:27;100091.69;;;4.71;95.49
77662;BME280;69666;52.136;5.424;2024-02-26T01:46:57;100087.78;;;4.74;95.67
77662;BME280;69666;52.136;5.424;2024-02-26T01:49:26;100087.34;;;4.63;95.92
77662;BME280;69666;52.136;5.424;2024-02-26T01:51:57;100084.06;;;4.68;96.06
77662;BME280;69666;52.136;5.424;2024-02-26T01:54:28;100084.94;;;4.75;95.89
77662;BME280;69666;52.136;5.424;2024-02-26T01:56:58;100090.28;;;4.75;95.58
77662;BME280;69666;52.136;5.424;2024-02-26T01:59:28;100102.16;;;4.73;95.66
77662;BME280;69666;52.136;5.424;2024-02-26T02:02:00;100106.66;;;4.72;95.70
77662;BME280;69666;52.136;5.424;2024-02-26T02:04:31;100095.59;;;4.75;96.14
77662;BME280;69666;52.136;5.424;2024-02-26T02:07:01;100100.31;;;4.73;96.32
77662;BME280;69666;52.136;5.424;2024-02-26T02:09:32;100106.72;;;4.79;96.03
77662;BME280;69666;52.136;5.424;2024-02-26T02:12:03;100106.13;;;4.83;95.44
77662;BME280;69666;52.136;5.424;2024-02-26T02:14:46;100111.03;;;4.80;95.13
77662;BME280;69666;52.136;5.424;2024-02-26T02:17:16;100102.19;;;4.79;95.69
77662;BME280;69666;52.136;5.424;2024-02-26T02:19:45;100113.13;;;4.84;95.48
77662;BME280;69666;52.136;5.424;2024-02-26T02:22:15;100118.47;;;4.84;95.15
77662;BME280;69666;52.136;5.424;2024-02-26T02:24:46;100121.13;;;4.84;95.36
77662;BME280;69666;52.136;5.424;2024-02-26T02:27:16;100113.75;;;4.86;95.29
77662;BME280;69666;52.136;5.424;2024-02-26T02:29:48;100125.69;;;4.90;95.34
77662;BME280;69666;52.136;5.424;2024-02-26T02:32:19;100120.34;;;4.90;94.84
77662;BME280;69666;52.136;5.424;2024-02-26T02:34:49;100119.09;;;4.86;95.31
77662;BME280;69666;52.136;5.424;2024-02-26T02:37:19;100117.88;;;4.89;95.05
77662;BME280;69666;52.136;5.424;2024-02-26T02:39:49;100134.31;;;4.92;95.10
77662;BME280;69666;52.136;5.424;2024-02-26T02:42:18;100127.81;;;5.02;95.05
77662;BME280;69666;52.136;5.424;2024-02-26T02:44:48;100137.84;;;4.99;95.36
77662;BME280;69666;52.136;5.424;2024-02-26T02:47:17;100141.16;;;5.02;95.23
77662;BME280;69666;52.136;5.424;2024-02-26T02:49:54;100145.09;;;5.06;95.22
77662;BME280;69666;52.136;5.424;2024-02-26T02:52:24;100136.00;;;5.00;95.10
77662;BME280;69666;52.136;5.424;2024-02-26T02:54:53;100139.75;;;5.06;95.37
77662;BME280;69666;52.136;5.424;2024-02-26T02:57:23;100143.81;;;5.02;95.51
77662;BME280;69666;52.136;5.424;2024-02-26T02:59:52;100152.72;;;5.09;95.51
77662;BME280;69666;52.136;5.424;2024-02-26T03:02:22;100158.25;;;5.07;94.96
77662;BME280;69666;52.136;5.424;2024-02-26T03:04:52;100157.03;;;5.10;95.33
77662;BME280;69666;52.136;5.424;2024-02-26T03:07:22;100155.75;;;5.06;95.25
77662;BME280;69666;52.136;5.424;2024-02-26T03:09:52;100166.59;;;4.97;94.99
77662;BME280;69666;52.136;5.424;2024-02-26T03:12:21;100169.69;;;5.01;95.01
77662;BME280;69666;52.136;5.424;2024-02-26T03:14:50;100169.25;;;4.97;95.25
77662;BME280;69666;52.136;5.424;2024-02-26T03:17:22;100179.56;;;5.01;95.39
77662;BME280;69666;52.136;5.424;2024-02-26T03:19:52;100185.66;;;4.94;95.73
77662;BME280;69666;52.136;5.424;2024-02-26T03:22:22;100189.78;;;4.97;95.56
77662;BME280;69666;52.136;5.424;2024-02-26T03:25:16;100192.28;;;4.98;94.99
77662;BME280;69666;52.136;5.424;2024-02-26T03:27:46;100191.00;;;4.94;95.00
77662;BME280;69666;52.136;5.424;2024-02-26T03:30:16;100190.53;;;4.84;95.28
77662;BME280;69666;52.136;5.424;2024-02-26T03:32:46;100191.59;;;4.90;95.19
77662;BME280;69666;52.136;5.424;2024-02-26T03:35:17;100193.28;;;4.97;95.66
77662;BME280;69666;52.136;5.424;2024-02-26T03:37:47;100203.59;;;5.01;95.22
77662;BME280;69666;52.136;5.424;2024-02-26T03:40:18;100195.28;;;4.89;95.32
77662;BME280;69666;52.136;5.424;2024-02-26T03:42:47;100200.38;;;4.84;94.51
77662;BME280;69666;52.136;5.424;2024-02-26T03:45:18;100198.72;;;4.83;95.59
77662;BME280;69666;52.136;5.424;2024-02-26T03:47:48;100206.53;;;4.84;95.48
77662;BME280;69666;52.136;5.424;2024-02-26T03:50:18;100202.03;;;4.85;95.53
77662;BME280;69666;52.136;5.424;2024-02-26T03:55:41;100208.19;;;4.85;95.01
77662;BME280;69666;52.136;5.424;2024-02-26T03:58:13;100202.03;;;4.85;95.36
77662;BME280;69666;52.136;5.424;2024-02-26T04:00:43;100204.50;;;4.86;95.10
77662;BME280;69666;52.136;5.424;2024-02-26T04:03:13;100201.25;;;4.91;94.92
77662;BME280;69666;52.136;5.424;2024-02-26T04:05:43;100205.00;;;4.96;95.16
77662;BME280;69666;52.136;5.424;2024-02-26T04:08:12;100199.53;;;4.83;94.95
77662;BME280;69666;52.136;5.424;2024-02-26T04:10:42;100208.56;;;4.82;95.28
77662;BME280;69666;52.136;5.424;2024-02-26T04:13:12;100209.69;;;4.94;95.14
77662;BME280;69666;52.136;5.424;2024-02-26T04:15:41;100203.88;;;4.84;94.93
77662;BME280;69666;52.136;5.424;2024-02-26T04:18:18;100221.53;;;4.85;95.30
77662;BME280;69666;52.136;5.424;2024-02-26T04:20:48;100208.00;;;4.87;95.01
77662;BME280;69666;52.136;5.424;2024-02-26T04:23:39;100220.13;;;4.89;95.37
77662;BME280;69666;52.136;5.424;2024-02-26T04:26:09;100224.84;;;4.87;94.68
77662;BME280;69666;52.136;5.424;2024-02-26T04:28:39;100226.28;;;4.90;94.80
77662;BME280;69666;52.136;5.424;2024-02-26T04:31:11;100232.91;;;4.94;94.82
77662;BME280;69666;52.136;5.424;2024-02-26T04:33:41;100223.03;;;4.94;94.65
77662;BME280;69666;52.136;5.424;2024-02-26T04:36:16;100226.72;;;4.93;94.53
77662;BME280;69666;52.136;5.424;2024-02-26T04:38:46;100236.25;;;5.03;94.65
77662;BME280;69666;52.136;5.424;2024-02-26T04:41:16;100237.06;;;5.03;94.67
77662;BME280;69666;52.136;5.424;2024-02-26T04:43:45;100236.88;;;5.05;94.62
77662;BME280;69666;52.136;5.424;2024-02-26T04:46:14;100240.19;;;5.07;94.63
77662;BME280;69666;52.136;5.424;2024-02-26T04:48:44;100239.56;;;5.05;94.68
77662;BME280;69666;52.136;5.424;2024-02-26T04:51:18;100237.47;;;5.00;94.77
77662;BME280;69666;52.136;5.424;2024-02-26T04:53:47;100238.66;;;4.97;94.91
77662;BME280;69666;52.136;5.424;2024-02-26T04:56:31;100245.66;;;4.98;94.95
77662;BME280;69666;52.136;5.424;2024-02-26T04:59:01;100236.63;;;4.99;94.80
77662;BME280;69666;52.136;5.424;2024-02-26T05:01:32;100246.06;;;4.95;94.63
77662;BME280;69666;52.136;5.424;2024-02-26T05:04:02;100249.16;;;4.99;94.93
77662;BME280;69666;52.136;5.424;2024-02-26T05:06:32;100253.88;;;4.97;94.62
77662;BME280;69666;52.136;5.424;2024-02-26T05:09:02;100253.88;;;4.97;94.81
77662;BME280;69666;52.136;5.424;2024-02-26T05:11:32;100252.03;;;4.97;94.89
77662;BME280;69666;52.136;5.424;2024-02-26T05:14:04;100263.53;;;4.98;95.15
77662;BME280;69666;52.136;5.424;2024-02-26T05:16:33;100257.56;;;4.96;94.99
77662;BME280;69666;52.136;5.424;2024-02-26T05:19:03;100246.06;;;4.95;95.28
77662;BME280;69666;52.136;5.424;2024-02-26T05:21:34;100254.69;;;4.97;94.94
77662;BME280;69666;52.136;5.424;2024-02-26T05:24:04;100262.50;;;4.99;95.25
77662;BME280;69666;52.136;5.424;2024-02-26T05:26:33;100259.19;;;4.97;94.86
77662;BME280;69666;52.136;5.424;2024-02-26T05:29:03;100261.63;;;4.92;95.03
77662;BME280;69666;52.136;5.424;2024-02-26T05:31:43;100261.28;;;5.02;95.22
77662;BME280;69666;52.136;5.424;2024-02-26T05:34:13;100260.84;;;4.98;95.06
77662;BME280;69666;52.136;5.424;2024-02-26T05:36:49;100270.91;;;4.96;94.71
77662;BME280;69666;52.136;5.424;2024-02-26T05:39:19;100271.53;;;4.98;94.87
77662;BME280;69666;52.136;5.424;2024-02-26T05:41:48;100266.13;;;4.91;95.10
77662;BME280;69666;52.136;5.424;2024-02-26T05:44:18;100281.31;;;4.91;94.95
77662;BME280;69666;52.136;5.424;2024-02-26T05:46:51;100280.88;;;4.87;95.38
77662;BME280;69666;52.136;5.424;2024-02-26T05:49:21;100285.84;;;4.90;95.10
77662;BME280;69666;52.136;5.424;2024-02-26T05:51:51;100286.28;;;4.94;95.18
77662;BME280;69666;52.136;5.424;2024-02-26T05:54:21;100292.44;;;4.94;95.26
77662;BME280;69666;52.136;5.424;2024-02-26T05:56:51;100288.50;;;4.90;94.91
77662;BME280;69666;52.136;5.424;2024-02-26T05:59:47;100292.63;;;4.93;94.88
77662;BME280;69666;52.136;5.424;2024-02-26T06:02:21;100301.22;;;4.88;94.58
77662;BME280;69666;52.136;5.424;2024-02-26T06:04:51;100301.78;;;4.84;95.44
77662;BME280;69666;52.136;5.424;2024-02-26T06:07:21;100309.03;;;4.90;95.23
77662;BME280;69666;52.136;5.424;2024-02-26T06:09:51;100295.63;;;4.83;95.04
77662;BME280;69666;52.136;5.424;2024-02-26T06:12:21;100306.56;;;4.88;95.39
77662;BME280;69666;52.136;5.424;2024-02-26T06:14:50;100313.34;;;4.91;94.92
77662;BME280;69666;52.136;5.424;2024-02-26T06:17:20;100310.81;;;4.83;95.30
77662;BME280;69666;52.136;5.424;2024-02-26T06:19:50;100311.84;;;4.82;95.28
77662;BME280;69666;52.136;5.424;2024-02-26T06:22:20;100326.38;;;4.79;95.27
77662;BME280;69666;52.136;5.424;2024-02-26T06:24:49;100327.28;;;4.86;94.96
77662;BME280;69666;52.136;5.424;2024-02-26T06:27:23;100339.88;;;4.92;95.05
77662;BME280;69666;52.136;5.424;2024-02-26T06:29:52;100325.13;;;4.96;95.09
77662;BME280;69666;52.136;5.424;2024-02-26T06:32:24;100333.50;;;4.93;95.02
77662;BME280;69666;52.136;5.424;2024-02-26T06:35:02;100325.31;;;4.95;95.00
77662;BME280;69666;52.136;5.424;2024-02-26T06:37:41;100337.56;;;4.89;94.91
77662;BME280;69666;52.136;5.424;2024-02-26T06:40:10;100351.56;;;4.91;94.92
77662;BME280;69666;52.136;5.424;2024-02-26T06:42:40;100332.63;;;4.86;95.23
77662;BME280;69666;52.136;5.424;2024-02-26T06:45:15;100341.44;;;4.87;95.06
77662;BME280;69666;52.136;5.424;2024-02-26T06:47:45;100347.22;;;4.90;95.49
77662;BME280;69666;52.136;5.424;2024-02-26T06:50:15;100352.56;;;4.90;95.31
77662;BME280;69666;52.136;5.424;2024-02-26T06:52:44;100363.44;;;4.89;95.37
77662;BME280;69666;52.136;5.424;2024-02-26T06:55:17;100360.59;;;4.90;95.38
77662;BME280;69666;52.136;5.424;2024-02-26T06:57:47;100357.72;;;4.92;95.28
77662;BME280;69666;52.136;5.424;2024-02-26T07:00:16;100356.31;;;4.96;95.44
77662;BME280;69666;52.136;5.424;2024-02-26T07:03:10;100361.41;;;4.91;95.50
77662;BME280;69666;52.136;5.424;2024-02-26T07:05:39;100371.25;;;4.90;95.65
77662;BME280;69666;52.136;5.424;2024-02-26T07:08:09;100376.22;;;4.93;95.63
77662;BME280;69666;52.136;5.424;2024-02-26T07:10:38;100381.09;;;4.90;95.55
77662;BME280;69666;52.136;5.424;2024-02-26T07:13:07;100381.56;;;4.93;95.71
77662;BME280;69666;52.136;5.424;2024-02-26T07:15:37;100382.38;;;4.94;95.73
77662;BME280;69666;52.136;5.424;2024-02-26T07:18:06;100386.97;;;5.00;95.66
77662;BME280;69666;52.136;5.424;2024-02-26T07:20:36;100384.88;;;4.95;95.67
77662;BME280;69666;52.136;5.424;2024-02-26T07:23:06;100388.63;;;5.01;95.74
77662;BME280;69666;52.136;5.424;2024-02-26T07:25:35;100389.25;;;5.03;95.57
77662;BME280;69666;52.136;5.424;2024-02-26T07:28:05;100401.41;;;5.06;95.15
77662;BME280;69666;52.136;5.424;2024-02-26T07:30:34;100405.34;;;5.10;95.65
77662;BME280;69666;52.136;5.424;2024-02-26T07:33:04;100396.31;;;5.11;95.89
77662;BME280;69666;52.136;5.424;2024-02-26T07:35:34;100398.53;;;5.07;95.62
77662;BME280;69666;52.136;5.424;2024-02-26T07:38:22;100400.56;;;5.05;95.72
77662;BME280;69666;52.136;5.424;2024-02-26T07:41:09;100408.84;;;5.10;95.55
77662;BME280;69666;52.136;5.424;2024-02-26T07:43:39;100404.63;;;5.01;95.79
77662;BME280;69666;52.136;5.424;2024-02-26T07:46:12;100425.81;;;5.03;96.22
77662;BME280;69666;52.136;5.424;2024-02-26T07:48:43;100416.41;;;5.07;96.17
77662;BME280;69666;52.136;5.424;2024-02-26T07:51:13;100414.75;;;5.06;95.57
77662;BME280;69666;52.136;5.424;2024-02-26T07:53:50;100423.13;;;5.03;96.40
77662;BME280;69666;52.136;5.424;2024-02-26T07:56:22;100436.38;;;5.11;96.43
77662;BME280;69666;52.136;5.424;2024-02-26T07:58:52;100441.97;;;5.16;96.10
77662;BME280;69666;52.136;5.424;2024-02-26T08:02:10;100436.44;;;5.17;96.33
77662;BME280;69666;52.136;5.424;2024-02-26T08:04:40;100441.38;;;5.20;95.77
77662;BME280;69666;52.136;5.424;2024-02-26T08:07:09;100449.47;;;5.27;95.74
77662;BME280;69666;52.136;5.424;2024-02-26T08:09:39;100452.50;;;5.24;96.04
77662;BME280;69666;52.136;5.424;2024-02-26T08:12:09;100452.50;;;5.24;95.99
77662;BME280;69666;52.136;5.424;2024-02-26T08:14:40;100457.66;;;5.25;96.05
77662;BME280;69666;52.136;5.424;2024-02-26T08:17:11;100458.56;;;5.32;96.43
77662;BME280;69666;52.136;5.424;2024-02-26T08:19:40;100467.84;;;5.37;95.90
77662;BME280;69666;52.136;5.424;2024-02-26T08:22:10;100464.78;;;5.40;96.12
77662;BME280;69666;52.136;5.424;2024-02-26T08:24:44;100465.63;;;5.40;96.07
77662;BME280;69666;52.136;5.424;2024-02-26T08:30:01;100462.56;;;5.43;96.08
77662;BME280;69666;52.136;5.424;2024-02-26T08:32:35;100475.66;;;5.38;95.71
77662;BME280;69666;52.136;5.424;2024-02-26T08:35:06;100466.81;;;5.38;95.97
77662;BME280;69666;52.136;5.424;2024-02-26T08:37:36;100480.63;;;5.41;96.00
77662;BME280;69666;52.136;5.424;2024-02-26T08:40:06;100481.34;;;5.50;95.91
77662;BME280;69666;52.136;5.424;2024-02-26T08:42:39;100483.94;;;5.43;95.48
77662;BME280;69666;52.136;5.424;2024-02-26T08:45:09;100492.34;;;5.40;95.78
77662;BME280;69666;52.136;5.424;2024-02-26T08:47:39;100497.31;;;5.43;95.99
77662;BME280;69666;52.136;5.424;2024-02-26T08:50:11;100494.44;;;5.45;96.20
77662;BME280;69666;52.136;5.424;2024-02-26T08:52:41;100499.41;;;5.48;96.16
77662;BME280;69666;52.136;5.424;2024-02-26T08:55:41;100501.25;;;5.47;96.23
77662;BME280;69666;52.136;5.424;2024-02-26T08:58:13;100513.59;;;5.48;95.65
77662;BME280;69666;52.136;5.424;2024-02-26T09:00:43;100500.88;;;5.50;95.61
77662;BME280;69666;52.136;5.424;2024-02-26T09:03:12;100517.81;;;5.57;95.33
77662;BME280;69666;52.136;5.424;2024-02-26T09:05:43;100515.06;;;5.51;95.73
77662;BME280;69666;52.136;5.424;2024-02-26T09:08:12;100519.19;;;5.53;95.61
77662;BME280;69666;52.136;5.424;2024-02-26T09:10:43;100512.47;;;5.57;95.70
77662;BME280;69666;52.136;5.424;2024-02-26T09:13:13;100515.31;;;5.56;95.31
77662;BME280;69666;52.136;5.424;2024-02-26T09:15:43;100526.56;;;5.51;95.63
77662;BME280;69666;52.136;5.424;2024-02-26T09:18:12;100536.63;;;5.49;95.87
77662;BME280;69666;52.136;5.424;2024-02-26T09:20:44;100532.94;;;5.50;95.90
77662;BME280;69666;52.136;5.424;2024-02-26T09:23:13;100525.94;;;5.49;96.01
77662;BME280;69666;52.136;5.424;2024-02-26T09:25:44;100544.00;;;5.47;96.13
77662;BME280;69666;52.136;5.424;2024-02-26T09:28:37;100534.97;;;5.48;96.15
77662;BME280;69666;52.136;5.424;2024-02-26T09:31:07;100551.00;;;5.48;96.08
77662;BME280;69666;52.136;5.424;2024-02-26T09:33:36;100550.63;;;5.51;95.98
77662;BME280;69666;52.136;5.424;2024-02-26T09:36:06;100547.69;;;5.46;96.10
77662;BME280;69666;52.136;5.424;2024-02-26T09:38:35;100549.34;;;5.47;96.05
77662;BME280;69666;52.136;5.424;2024-02-26T09:41:23;100555.69;;;5.46;96.03
77662;BME280;69666;52.136;5.424;2024-02-26T09:43:57;100564.63;;;5.53;96.15
77662;BME280;69666;52.136;5.424;2024-02-26T09:46:27;100569.78;;;5.55;96.01
77662;BME280;69666;52.136;5.424;2024-02-26T09:48:57;100569.06;;;5.46;96.36
77662;BME280;69666;52.136;5.424;2024-02-26T09:51:57;100569.06;;;5.46;96.46
77662;BME280;69666;52.136;5.424;2024-02-26T09:55:17;100569.88;;;5.47;96.68
77662;BME280;69666;52.136;5.424;2024-02-26T09:57:51;100567.94;;;5.55;96.51
77662;BME280;69666;52.136;5.424;2024-02-26T10:00:37;100587.22;;;5.51;96.53
77662;BME280;69666;52.136;5.424;2024-02-26T10:03:14;100592.09;;;5.47;96.57
77662;BME280;69666;52.136;5.424;2024-02-26T10:08:35;100589.31;;;5.55;96.95
77662;BME280;69666;52.136;5.424;2024-02-26T10:11:06;100594.19;;;5.52;96.55
77662;BME280;69666;52.136;5.424;2024-02-26T10:13:36;100592.00;;;5.55;96.66
77662;BME280;69666;52.136;5.424;2024-02-26T10:16:11;100606.09;;;5.49;96.70
77662;BME280;69666;52.136;5.424;2024-02-26T10:18:52;100602.78;;;5.47;97.19
77662;BME280;69666;52.136;5.424;2024-02-26T10:21:27;100608.59;;;5.51;96.89
77662;BME280;69666;52.136;5.424;2024-02-26T10:24:03;100605.72;;;5.52;96.90
77662;BME280;69666;52.136;5.424;2024-02-26T10:26:34;100621.56;;;5.54;97.13
77662;BME280;69666;52.136;5.424;2024-02-26T10:29:33;100626.34;;;5.58;97.28
77662;BME280;69666;52.136;5.424;2024-02-26T10:32:08;100621.09;;;5.65;97.00
77662;BME280;69666;52.136;5.424;2024-02-26T10:34:45;100632.16;;;5.62;97.10
77662;BME280;69666;52.136;5.424;2024-02-26T10:37:14;100631.78;;;5.65;97.25
77662;BME280;69666;52.136;5.424;2024-02-26T10:39:47;100637.31;;;5.63;97.13
77662;BME280;69666;52.136;5.424;2024-02-26T10:42:18;100645.31;;;5.63;97.26
77662;BME280;69666;52.136;5.424;2024-02-26T10:44:47;100648.63;;;5.65;97.07
77662;BME280;69666;52.136;5.424;2024-02-26T10:50:56;100644.94;;;5.67;97.30
77662;BME280;69666;52.136;5.424;2024-02-26T10:53:33;100661.00;;;5.67;97.51
77662;BME280;69666;52.136;5.424;2024-02-26T10:56:05;100656.94;;;5.71;97.44
77662;BME280;69666;52.136;5.424;2024-02-26T10:58:36;100663.53;;;5.75;97.42
77662;BME280;69666;52.136;5.424;2024-02-26T11:01:06;100659.38;;;5.72;97.51
77662;BME280;69666;52.136;5.424;2024-02-26T11:03:41;100672.00;;;5.78;97.51
77662;BME280;69666;52.136;5.424;2024-02-26T11:06:13;100684.63;;;5.84;97.34
77662;BME280;69666;52.136;5.424;2024-02-26T11:08:45;100679.09;;;5.86;97.68
77662;BME280;69666;52.136;5.424;2024-02-26T11:12:05;100682.13;;;5.83;97.43
77662;BME280;69666;52.136;5.424;2024-02-26T11:14:40;100686.00;;;5.80;97.56
77662;BME280;69666;52.136;5.424;2024-02-26T11:17:13;100696.50;;;5.82;97.46
77662;BME280;69666;52.136;5.424;2024-02-26T11:19:46;100697.91;;;5.78;97.78
77662;BME280;69666;52.136;5.424;2024-02-26T11:22:17;100702.50;;;5.84;97.86
77662;BME280;69666;52.136;5.424;2024-02-26T11:24:56;100696.25;;;5.91;97.73
77662;BME280;69666;52.136;5.424;2024-02-26T11:28:15;100694.41;;;5.92;97.64
77662;BME280;69666;52.136;5.424;2024-02-26T11:34:00;100705.75;;;5.94;97.35
77662;BME280;69666;52.136;5.424;2024-02-26T11:36:31;100704.47;;;5.90;97.43
77662;BME280;69666;52.136;5.424;2024-02-26T11:39:03;100717.25;;;5.94;97.20
77662;BME280;69666;52.136;5.424;2024-02-26T11:41:35;100722.81;;;5.93;96.61
77662;BME280;69666;52.136;5.424;2024-02-26T11:47:21;100718.84;;;5.89;97.71
77662;BME280;69666;52.136;5.424;2024-02-26T11:49:55;100719.50;;;5.91;97.65
77662;BME280;69666;52.136;5.424;2024-02-26T11:52:25;100726.38;;;5.85;97.76
77662;BME280;69666;52.136;5.424;2024-02-26T11:54:56;100724.19;;;5.89;97.86
77662;BME280;69666;52.136;5.424;2024-02-26T12:05:32;100745.66;;;5.95;97.90
77662;BME280;69666;52.136;5.424;2024-02-26T12:08:08;100743.72;;;6.04;97.95
77662;BME280;69666;52.136;5.424;2024-02-26T12:10:39;100750.72;;;6.05;98.06
77662;BME280;69666;52.136;5.424;2024-02-26T12:13:15;100748.31;;;6.10;98.21
77662;BME280;69666;52.136;5.424;2024-02-26T12:15:58;100757.34;;;6.09;97.84
77662;BME280;69666;52.136;5.424;2024-02-26T12:18:31;100753.47;;;6.12;98.00
77662;BME280;69666;52.136;5.424;2024-02-26T12:21:03;100758.66;;;6.13;98.00
77662;BME280;69666;52.136;5.424;2024-02-26T12:23:33;100763.63;;;6.16;97.69
77662;BME280;69666;52.136;5.424;2024-02-26T12:26:04;100769.22;;;6.21;97.67
77662;BME280;69666;52.136;5.424;2024-02-26T12:28:47;100771.06;;;6.21;97.29
77662;BME280;69666;52.136;5.424;2024-02-26T12:31:16;100770.94;;;6.29;97.75
77662;BME280;69666;52.136;5.424;2024-02-26T12:33:48;100780.16;;;6.26;97.86
77662;BME280;69666;52.136;5.424;2024-02-26T12:36:19;100774.19;;;6.24;97.61
77662;BME280;69666;52.136;5.424;2024-02-26T12:38:59;100774.81;;;6.26;97.30
77662;BME280;69666;52.136;5.424;2024-02-26T12:41:33;100784.50;;;6.27;97.39
77662;BME280;69666;52.136;5.424;2024-02-26T12:44:03;100785.72;;;6.25;97.70
77662;BME280;69666;52.136;5.424;2024-02-26T12:46:35;100782.84;;;6.26;97.31
77662;BME280;69666;52.136;5.424;2024-02-26T12:49:05;100788.00;;;6.28;97.48
77662;BME280;69666;52.136;5.424;2024-02-26T12:51:35;100795.84;;;6.29;97.44
77662;BME280;69666;52.136;5.424;2024-02-26T12:54:05;100797.25;;;6.25;97.32
77662;BME280;69666;52.136;5.424;2024-02-26T12:56:48;100795.72;;;6.16;97.35
77662;BME280;69666;52.136;5.424;2024-02-26T12:59:18;100793.31;;;6.21;97.84
77662;BME280;69666;52.136;5.424;2024-02-26T13:01:58;100800.69;;;6.19;97.13
77662;BME280;69666;52.136;5.424;2024-02-26T13:04:32;100803.19;;;6.21;97.66
77662;BME280;69666;52.136;5.424;2024-02-26T13:07:04;100811.41;;;6.19;97.59
77662;BME280;69666;52.136;5.424;2024-02-26T13:09:35;100804.44;;;6.25;97.40
77662;BME280;69666;52.136;5.424;2024-02-26T13:12:22;100808.13;;;6.24;97.16
77662;BME280;69666;52.136;5.424;2024-02-26T13:15:02;100810.81;;;6.24;97.24
77662;BME280;69666;52.136;5.424;2024-02-26T13:17:45;100818.03;;;6.23;96.78
77662;BME280;69666;52.136;5.424;2024-02-26T13:20:27;100822.22;;;6.32;96.96
77662;BME280;69666;52.136;5.424;2024-02-26T13:23:12;100820.13;;;6.28;97.02
77662;BME280;69666;52.136;5.424;2024-02-26T13:25:42;100827.06;;;6.22;96.93
77662;BME280;69666;52.136;5.424;2024-02-26T13:28:16;100826.75;;;6.32;97.16
77662;BME280;69666;52.136;5.424;2024-02-26T13:30:53;100836.63;;;6.31;96.78
77662;BME280;69666;52.136;5.424;2024-02-26T13:33:26;100836.16;;;6.28;96.65
77662;BME280;69666;52.136;5.424;2024-02-26T13:35:57;100837.00;;;6.28;96.36
77662;BME280;69666;52.136;5.424;2024-02-26T13:38:28;100837.00;;;6.28;96.31
77662;BME280;69666;52.136;5.424;2024-02-26T13:41:25;100842.34;;;6.28;96.60
77662;BME280;69666;52.136;5.424;2024-02-26T13:43:59;100841.97;;;6.31;96.31
77662;BME280;69666;52.136;5.424;2024-02-26T13:46:29;100850.75;;;6.25;95.83
77662;BME280;69666;52.136;5.424;2024-02-26T13:49:02;100847.69;;;6.28;96.25
77662;BME280;69666;52.136;5.424;2024-02-26T13:51:33;100843.81;;;6.31;96.50
77662;BME280;69666;52.136;5.424;2024-02-26T13:54:06;100854.97;;;6.35;96.24
77662;BME280;69666;52.136;5.424;2024-02-26T13:56:39;100861.34;;;6.34;95.81